Time;durP1;ratioP1;P1;durP2;ratioP2;P2;SDS_P1;SDS_P2;PMS_P1;PMS_P2;Temp;Humidity;BMP_temperature;BMP_pressure;BME280_temperature;BME280_humidity;BME280_pressure;Samples;Min_cycle;Max_cycle;Signal;HPM_P1;HPM_P2
2022/09/28 00:00:51;;;;;;;9.63;9.33;;;7.50;99.90;;;;;;5081126;22;20254;-79
2022/09/28 00:03:18;;;;;;;9.63;9.33;;;7.50;99.90;;;;;;5080247;28;20226;-79
2022/09/28 00:05:45;;;;;;;9.50;9.20;;;7.50;99.90;;;;;;5089146;28;20317;-79
2022/09/28 00:08:14;;;;;;;9.70;9.40;;;7.50;99.90;;;;;;5083759;28;20313;-80
2022/09/28 00:10:42;;;;;;;9.30;9.00;;;7.50;99.90;;;;;;5083439;28;20294;-79
2022/09/28 00:13:09;;;;;;;9.33;9.03;;;7.50;99.90;;;;;;5081142;28;20288;-79
2022/09/28 00:15:40;;;;;;;9.30;9.00;;;7.50;99.90;;;;;;5078213;28;20234;-77
2022/09/28 00:18:07;;;;;;;9.40;9.10;;;7.60;99.90;;;;;;5077843;28;20976;-77
2022/09/28 00:20:36;;;;;;;9.70;9.40;;;7.60;99.90;;;;;;5077833;28;20226;-80
2022/09/28 00:23:04;;;;;;;9.43;9.13;;;7.60;99.90;;;;;;5078681;28;20234;-79
2022/09/28 00:25:31;;;;;;;9.67;9.37;;;7.50;99.90;;;;;;5076666;28;20234;-78
2022/09/28 00:27:58;;;;;;;9.70;9.40;;;7.50;99.90;;;;;;5076865;28;20241;-77
2022/09/28 00:30:26;;;;;;;9.60;9.30;;;7.50;99.90;;;;;;5077001;28;20248;-77
2022/09/28 00:32:55;;;;;;;9.70;9.40;;;7.50;99.90;;;;;;5076444;28;20238;-79
2022/09/28 00:35:22;;;;;;;9.70;9.40;;;7.60;99.90;;;;;;5076937;28;20253;-77
2022/09/28 00:37:50;;;;;;;9.33;9.03;;;7.60;99.90;;;;;;5080587;28;20234;-77
2022/09/28 00:40:19;;;;;;;9.70;9.40;;;7.60;99.90;;;;;;5080830;28;20333;-80
2022/09/28 00:42:48;;;;;;;9.57;9.27;;;7.60;99.90;;;;;;5080679;28;20254;-78
2022/09/28 00:45:17;;;;;;;9.40;9.10;;;7.60;99.90;;;;;;5082297;28;20236;-78
2022/09/28 00:47:49;;;;;;;9.37;9.07;;;7.60;99.90;;;;;;5086683;28;20293;-78
2022/09/28 00:50:30;;;;;;;9.47;9.17;;;7.60;99.90;;;;;;5085407;28;20226;-78
2022/09/28 00:53:04;;;;;;;9.30;9.00;;;7.60;99.90;;;;;;5083297;28;20237;-79
2022/09/28 00:55:39;;;;;;;9.37;9.07;;;7.60;99.90;;;;;;5079356;28;20222;-78
2022/09/28 00:58:10;;;;;;;9.40;9.10;;;7.60;99.90;;;;;;5080162;28;20218;-78
2022/09/28 01:00:39;;;;;;;9.50;9.20;;;7.60;99.90;;;;;;5082115;28;20245;-78
2022/09/28 01:03:07;;;;;;;9.43;9.13;;;7.70;99.90;;;;;;5082441;28;20234;-78
2022/09/28 01:05:41;;;;;;;9.40;9.10;;;7.70;99.90;;;;;;5081616;28;20233;-78
2022/09/28 01:08:10;;;;;;;9.10;8.80;;;7.70;99.90;;;;;;5081027;28;20244;-78
2022/09/28 01:10:42;;;;;;;9.20;8.90;;;7.70;99.90;;;;;;5081995;28;20238;-78
2022/09/28 01:13:10;;;;;;;9.30;9.00;;;7.80;99.90;;;;;;5080839;28;20238;-78
2022/09/28 01:15:50;;;;;;;9.50;9.20;;;7.80;99.90;;;;;;5079736;28;20234;-78
2022/09/28 01:18:24;;;;;;;9.20;8.90;;;7.80;99.90;;;;;;5080223;28;20701;-78
2022/09/28 01:21:11;;;;;;;9.30;9.00;;;7.80;99.90;;;;;;5079990;28;20244;-79
2022/09/28 01:24:09;;;;;;;9.13;8.83;;;7.80;99.90;;;;;;5080342;28;20226;-78
2022/09/28 01:27:11;;;;;;;8.97;8.67;;;7.80;99.90;;;;;;5079529;28;20230;-78
2022/09/28 01:29:48;;;;;;;9.07;8.77;;;7.80;99.90;;;;;;5046138;28;20229;-78
2022/09/28 01:32:32;;;;;;;9.37;9.07;;;7.80;99.90;;;;;;5079490;28;20246;-78
2022/09/28 01:35:06;;;;;;;9.30;9.00;;;7.70;99.90;;;;;;5078797;28;20245;-77
2022/09/28 01:37:42;;;;;;;9.23;8.93;;;7.70;99.90;;;;;;5079584;28;20241;-78
2022/09/28 01:40:13;;;;;;;9.30;9.00;;;7.70;99.90;;;;;;5080162;28;20236;-78
2022/09/28 01:42:46;;;;;;;8.97;8.67;;;7.70;99.90;;;;;;5082052;28;20310;-78
2022/09/28 01:45:26;;;;;;;9.30;9.00;;;7.70;99.90;;;;;;5080793;28;20260;-78
2022/09/28 01:47:58;;;;;;;9.20;8.90;;;7.70;99.90;;;;;;5081357;28;20222;-78
2022/09/28 01:50:30;;;;;;;9.17;8.87;;;7.70;99.90;;;;;;5075824;28;20234;-78
2022/09/28 01:53:06;;;;;;;9.17;8.87;;;7.70;99.90;;;;;;5081101;28;20222;-78
2022/09/28 01:55:38;;;;;;;9.17;8.87;;;7.70;99.90;;;;;;5080748;28;20234;-79
2022/09/28 01:58:15;;;;;;;9.00;8.70;;;7.70;99.90;;;;;;5080575;28;20234;-78
2022/09/28 02:00:47;;;;;;;8.83;8.63;;;7.70;99.90;;;;;;5080414;28;20234;-78
2022/09/28 02:03:19;;;;;;;9.07;8.77;;;7.70;99.90;;;;;;5079957;28;20225;-78
2022/09/28 02:05:52;;;;;;;9.30;9.00;;;7.60;99.90;;;;;;5079849;28;20325;-78
2022/09/28 02:08:27;;;;;;;9.50;9.20;;;7.60;99.90;;;;;;5080137;28;20218;-78
2022/09/28 02:11:01;;;;;;;9.20;8.90;;;7.60;99.90;;;;;;5076190;28;20316;-78
2022/09/28 02:13:35;;;;;;;9.07;8.77;;;7.60;99.90;;;;;;5080511;28;20239;-78
2022/09/28 02:16:10;;;;;;;8.90;8.60;;;7.60;99.90;;;;;;5082711;28;20243;-78
2022/09/28 02:18:37;;;;;;;9.10;8.80;;;7.60;99.90;;;;;;5085501;28;20225;-79
2022/09/28 02:21:13;;;;;;;9.40;9.10;;;7.60;99.90;;;;;;5081266;28;20285;-78
2022/09/28 02:23:51;;;;;;;9.40;9.10;;;7.60;99.90;;;;;;5081796;28;20248;-79
2022/09/28 02:26:23;;;;;;;9.23;8.93;;;7.60;99.90;;;;;;5080109;28;20234;-78
2022/09/28 02:28:52;;;;;;;9.63;9.33;;;7.60;99.90;;;;;;5081441;28;20286;-78
2022/09/28 02:31:19;;;;;;;9.37;9.07;;;7.50;99.90;;;;;;5080655;28;20245;-79
2022/09/28 02:33:47;;;;;;;9.33;9.03;;;7.60;99.90;;;;;;5081047;28;20241;-78
2022/09/28 02:36:16;;;;;;;9.40;9.10;;;7.60;99.90;;;;;;5080276;28;20222;-78
2022/09/28 02:38:46;;;;;;;9.40;9.10;;;7.50;99.90;;;;;;5080362;28;20219;-79
2022/09/28 02:41:27;;;;;;;9.10;8.80;;;7.50;99.90;;;;;;5081781;28;20268;-79
2022/09/28 02:44:12;;;;;;;9.07;8.77;;;7.60;99.90;;;;;;5081219;28;20226;-79
2022/09/28 02:46:47;;;;;;;9.00;8.70;;;7.50;99.90;;;;;;5083033;28;20234;-79
2022/09/28 02:49:25;;;;;;;9.17;8.87;;;7.50;99.90;;;;;;5085511;28;20226;-79
2022/09/28 02:52:16;;;;;;;9.20;8.90;;;7.50;99.90;;;;;;5082634;28;20241;-79
2022/09/28 02:55:17;;;;;;;8.70;8.50;;;7.50;99.90;;;;;;5079730;28;20234;-79
2022/09/28 02:58:10;;;;;;;9.20;8.90;;;7.60;99.90;;;;;;5078263;28;20209;-77
2022/09/28 03:00:46;;;;;;;9.10;8.80;;;7.50;99.90;;;;;;5080672;28;20242;-80
2022/09/28 03:03:25;;;;;;;9.10;8.80;;;7.50;99.90;;;;;;5081239;28;20217;-80
2022/09/28 03:06:01;;;;;;;9.50;9.20;;;7.50;99.90;;;;;;5079035;28;20376;-79
2022/09/28 03:08:35;;;;;;;9.00;8.70;;;7.50;99.90;;;;;;5079493;28;20289;-77
2022/09/28 03:11:07;;;;;;;9.20;8.90;;;7.50;99.90;;;;;;5079863;28;20222;-78
2022/09/28 03:13:36;;;;;;;9.20;8.90;;;7.60;99.90;;;;;;5079812;28;20313;-79
2022/09/28 03:16:18;;;;;;;9.10;8.80;;;7.60;99.90;;;;;;5079724;28;20236;-78
2022/09/28 03:18:47;;;;;;;9.10;8.80;;;7.70;99.90;;;;;;5080444;28;20226;-78
2022/09/28 03:21:15;;;;;;;9.23;8.93;;;7.70;99.90;;;;;;5079619;28;20241;-78
2022/09/28 03:23:46;;;;;;;9.27;8.97;;;7.70;99.90;;;;;;5079493;28;20238;-79
2022/09/28 03:26:15;;;;;;;9.27;8.97;;;7.70;99.90;;;;;;5078864;28;20287;-79
2022/09/28 03:28:43;;;;;;;9.53;9.23;;;7.70;99.90;;;;;;5079478;28;20222;-79
2022/09/28 03:31:12;;;;;;;9.40;9.10;;;7.70;99.90;;;;;;5079522;28;20233;-79
2022/09/28 03:33:40;;;;;;;9.10;8.80;;;7.70;99.90;;;;;;5079471;28;20334;-78
2022/09/28 03:36:09;;;;;;;9.30;9.00;;;7.70;99.90;;;;;;5078954;28;20238;-79
2022/09/28 03:38:36;;;;;;;9.10;8.80;;;7.70;99.90;;;;;;5079076;28;20226;-79
2022/09/28 03:41:04;;;;;;;9.10;8.80;;;7.70;99.90;;;;;;5078946;28;20215;-79
2022/09/28 03:43:32;;;;;;;9.30;9.00;;;7.70;99.90;;;;;;5079685;28;20240;-78
2022/09/28 03:46:02;;;;;;;9.40;9.10;;;7.70;99.90;;;;;;5089314;28;20226;-79
2022/09/28 03:48:34;;;;;;;9.30;9.00;;;7.80;99.90;;;;;;5088946;28;20240;-78
2022/09/28 03:51:04;;;;;;;9.43;9.13;;;7.80;99.90;;;;;;5081752;28;20230;-78
2022/09/28 03:53:33;;;;;;;9.30;9.00;;;7.80;99.90;;;;;;5080631;28;20234;-78
2022/09/28 03:56:04;;;;;;;9.10;8.80;;;7.70;99.90;;;;;;5080215;28;20248;-79
2022/09/28 03:58:32;;;;;;;8.90;8.60;;;7.70;99.90;;;;;;5080524;28;20234;-79
2022/09/28 04:01:03;;;;;;;9.20;8.90;;;7.70;99.90;;;;;;5079238;28;20285;-80
2022/09/28 04:03:35;;;;;;;9.17;8.87;;;7.70;99.90;;;;;;5089136;28;20226;-79
2022/09/28 04:06:03;;;;;;;9.20;8.90;;;7.70;99.90;;;;;;5082461;28;20234;-79
2022/09/28 04:08:31;;;;;;;9.20;8.90;;;7.70;99.90;;;;;;5082372;28;20249;-79
2022/09/28 04:11:00;;;;;;;9.30;9.00;;;7.70;99.90;;;;;;5080872;28;20230;-79
2022/09/28 04:13:28;;;;;;;9.40;9.10;;;7.70;99.90;;;;;;5080568;28;20234;-79
2022/09/28 04:15:59;;;;;;;9.33;9.03;;;7.70;99.90;;;;;;5080146;28;20241;-79
2022/09/28 04:18:27;;;;;;;9.20;8.90;;;7.70;99.90;;;;;;5080886;28;20246;-79
2022/09/28 04:21:07;;;;;;;9.20;8.90;;;7.70;99.90;;;;;;5081268;28;20245;-79
2022/09/28 04:23:36;;;;;;;9.27;8.97;;;7.70;99.90;;;;;;5081502;28;20301;-79
2022/09/28 04:26:05;;;;;;;9.33;9.03;;;7.70;99.90;;;;;;5081146;28;20280;-79
2022/09/28 04:31:20;;;;;;;9.10;8.80;;;7.80;99.90;;;;;;5082593;28;20213;-79
2022/09/28 04:33:49;;;;;;;9.10;8.80;;;7.80;99.90;;;;;;5093984;28;20336;-79
2022/09/28 04:36:23;;;;;;;8.90;8.60;;;7.80;99.90;;;;;;5096632;28;20226;-78
2022/09/28 04:38:51;;;;;;;9.00;8.70;;;7.80;99.90;;;;;;5096305;28;20234;-79
2022/09/28 04:41:19;;;;;;;8.90;8.60;;;7.80;99.90;;;;;;5095847;28;20226;-78
2022/09/28 04:43:47;;;;;;;8.60;8.40;;;7.80;99.90;;;;;;5094002;28;20248;-79
2022/09/28 04:46:17;;;;;;;9.00;8.70;;;7.90;99.90;;;;;;5087723;28;20246;-79
2022/09/28 04:48:46;;;;;;;9.10;8.80;;;7.90;99.90;;;;;;5084346;28;20325;-79
2022/09/28 04:51:15;;;;;;;9.20;8.90;;;7.90;99.90;;;;;;5083784;28;20247;-79
2022/09/28 04:53:46;;;;;;;9.10;8.80;;;8.00;99.90;;;;;;5084385;28;20298;-79
2022/09/28 04:56:15;;;;;;;9.03;8.73;;;8.00;99.90;;;;;;5082433;28;20254;-79
2022/09/28 04:58:44;;;;;;;9.10;8.80;;;8.10;99.90;;;;;;5083792;28;20230;-79
2022/09/28 05:01:15;;;;;;;9.23;8.93;;;8.10;99.90;;;;;;5083297;28;20226;-80
2022/09/28 05:03:44;;;;;;;9.20;8.90;;;8.10;99.90;;;;;;5083618;28;20233;-80
2022/09/28 05:06:15;;;;;;;9.20;8.90;;;8.10;99.90;;;;;;5084120;28;20226;-80
2022/09/28 05:08:47;;;;;;;9.27;8.97;;;8.10;99.90;;;;;;5083929;28;20300;-79
2022/09/28 05:11:18;;;;;;;9.50;9.20;;;8.10;99.90;;;;;;5083926;28;20244;-79
2022/09/28 05:13:49;;;;;;;9.77;9.47;;;8.10;99.90;;;;;;5083801;28;20230;-79
2022/09/28 05:16:19;;;;;;;10.00;9.70;;;8.10;99.90;;;;;;5083916;28;20226;-79
2022/09/28 05:18:48;;;;;;;10.00;9.70;;;8.10;99.90;;;;;;5084645;28;20230;-79
2022/09/28 05:21:18;;;;;;;9.80;9.50;;;8.10;99.90;;;;;;5084706;28;20241;-80
2022/09/28 05:23:51;;;;;;;10.00;9.70;;;8.10;99.90;;;;;;5085060;28;20258;-79
2022/09/28 05:26:19;;;;;;;9.70;9.40;;;8.10;99.90;;;;;;5085377;28;20230;-80
2022/09/28 05:28:46;;;;;;;10.00;9.70;;;8.10;99.90;;;;;;5084861;28;20233;-80
2022/09/28 05:31:17;;;;;;;10.23;9.93;;;8.20;99.90;;;;;;5085462;28;20225;-81
2022/09/28 05:33:45;;;;;;;10.27;9.97;;;8.20;99.90;;;;;;5086556;28;20290;-80
2022/09/28 05:36:14;;;;;;;10.00;9.70;;;8.20;99.90;;;;;;5086984;28;20334;-81
2022/09/28 05:38:45;;;;;;;9.73;9.43;;;8.30;99.90;;;;;;5088775;28;20312;-80
2022/09/28 05:41:14;;;;;;;9.90;9.60;;;8.30;99.90;;;;;;5089276;28;20226;-81
2022/09/28 05:43:43;;;;;;;10.40;10.10;;;8.30;99.90;;;;;;5091615;28;20421;-82
2022/09/28 05:46:12;;;;;;;10.13;9.83;;;8.40;99.90;;;;;;5087649;28;20240;-82
2022/09/28 05:48:42;;;;;;;9.80;9.50;;;8.40;99.90;;;;;;5088314;28;20230;-81
2022/09/28 05:51:12;;;;;;;9.97;9.67;;;8.50;99.90;;;;;;5085552;28;20241;-80
2022/09/28 05:53:41;;;;;;;10.13;9.83;;;8.50;99.90;;;;;;5087497;28;20321;-82
2022/09/28 05:56:13;;;;;;;10.10;9.80;;;8.50;99.90;;;;;;5086134;28;20273;-82
2022/09/28 05:58:44;;;;;;;9.70;9.40;;;8.50;99.90;;;;;;5087882;28;20290;-82
2022/09/28 06:01:12;;;;;;;10.07;9.77;;;8.50;99.90;;;;;;5087945;28;20234;-82
2022/09/28 06:03:40;;;;;;;9.83;9.53;;;8.50;99.90;;;;;;5088515;28;20238;-82
2022/09/28 06:06:09;;;;;;;9.83;9.53;;;8.50;99.90;;;;;;5088718;28;20230;-84
2022/09/28 06:08:41;;;;;;;10.10;9.80;;;8.50;99.90;;;;;;5087783;28;20226;-84
2022/09/28 06:11:11;;;;;;;10.17;9.87;;;8.50;99.90;;;;;;5088531;28;20245;-83
2022/09/28 06:13:41;;;;;;;9.87;9.57;;;8.50;99.90;;;;;;5096397;28;20282;-83
2022/09/28 06:16:09;;;;;;;9.90;9.60;;;8.60;99.90;;;;;;5100534;28;20257;-84
2022/09/28 06:18:37;;;;;;;10.00;9.70;;;8.60;99.90;;;;;;5101582;28;20277;-83
2022/09/28 06:21:09;;;;;;;10.10;9.80;;;8.60;99.90;;;;;;5101164;28;20241;-83
2022/09/28 06:23:37;;;;;;;10.23;9.93;;;8.60;99.90;;;;;;5101183;28;20210;-83
2022/09/28 06:26:32;;;;;;;9.90;9.60;;;8.70;99.90;;;;;;5101259;28;20245;-84
2022/09/28 06:29:13;;;;;;;10.13;9.83;;;8.80;99.90;;;;;;5101122;28;20230;-82
2022/09/28 06:31:40;;;;;;;10.03;9.73;;;8.80;99.90;;;;;;5100559;28;20218;-83
2022/09/28 06:34:09;;;;;;;10.20;9.90;;;8.80;99.90;;;;;;5101732;28;20229;-83
2022/09/28 06:36:38;;;;;;;10.17;9.87;;;8.80;99.90;;;;;;5100166;28;20229;-82
2022/09/28 06:39:07;;;;;;;10.30;10.00;;;8.90;99.90;;;;;;5099684;28;20222;-82
2022/09/28 06:41:37;;;;;;;10.00;9.70;;;8.90;99.90;;;;;;5101272;28;20214;-84
2022/09/28 06:44:17;;;;;;;9.97;9.67;;;9.00;99.90;;;;;;5101263;28;20220;-83
2022/09/28 06:46:45;;;;;;;10.00;9.70;;;9.00;99.90;;;;;;5101478;28;20240;-84
2022/09/28 06:49:14;;;;;;;10.07;9.77;;;9.00;99.90;;;;;;5101653;28;20234;-84
2022/09/28 06:51:45;;;;;;;10.20;9.90;;;9.00;99.90;;;;;;5100896;28;20237;-84
2022/09/28 06:54:13;;;;;;;9.90;9.60;;;9.10;99.90;;;;;;5101507;28;20218;-84
2022/09/28 06:56:42;;;;;;;9.77;9.47;;;9.10;99.90;;;;;;5098285;28;20241;-83
2022/09/28 06:59:22;;;;;;;9.83;9.53;;;9.20;99.90;;;;;;5099525;28;20219;-83
2022/09/28 07:01:50;;;;;;;9.97;9.67;;;9.20;99.90;;;;;;5098499;28;20222;-87
2022/09/28 07:04:19;;;;;;;9.67;9.37;;;9.20;99.90;;;;;;5083640;28;20261;-86
2022/09/28 07:06:49;;;;;;;9.60;9.30;;;9.30;99.90;;;;;;5090391;28;20226;-85
2022/09/28 07:09:18;;;;;;;10.00;9.70;;;9.30;99.90;;;;;;5082638;28;20230;-84
2022/09/28 07:11:48;;;;;;;10.10;9.80;;;9.30;99.90;;;;;;5081893;28;20254;-85
2022/09/28 07:14:23;;;;;;;9.90;9.60;;;9.40;99.90;;;;;;5082126;28;20314;-85
2022/09/28 07:16:57;;;;;;;9.97;9.67;;;9.40;99.90;;;;;;5082378;28;20225;-84
2022/09/28 07:19:26;;;;;;;9.93;9.63;;;9.40;99.90;;;;;;5081083;28;20229;-81
2022/09/28 07:21:56;;;;;;;9.70;9.40;;;9.40;99.90;;;;;;5081068;28;20222;-81
2022/09/28 07:24:24;;;;;;;10.03;9.73;;;9.40;99.90;;;;;;5080909;28;20232;-80
2022/09/28 07:26:54;;;;;;;9.97;9.67;;;9.50;99.90;;;;;;5081198;28;20232;-81
2022/09/28 07:29:27;;;;;;;10.20;9.90;;;9.50;99.90;;;;;;5077538;28;20240;-82
2022/09/28 07:31:54;;;;;;;10.30;10.00;;;9.50;99.90;;;;;;5079068;28;20222;-78
2022/09/28 07:34:23;;;;;;;9.87;9.57;;;9.60;99.90;;;;;;5080367;28;20313;-83
2022/09/28 07:36:57;;;;;;;9.80;9.50;;;9.70;99.90;;;;;;5080890;28;20325;-83
2022/09/28 07:39:29;;;;;;;10.20;9.90;;;9.80;99.90;;;;;;5080739;28;20222;-83
2022/09/28 07:41:56;;;;;;;9.87;9.57;;;9.90;99.90;;;;;;5080855;28;20257;-83
2022/09/28 07:44:29;;;;;;;10.10;9.80;;;9.80;99.90;;;;;;5074774;28;20298;-84
2022/09/28 07:46:58;;;;;;;10.00;9.70;;;10.00;99.90;;;;;;5086036;28;20226;-83
2022/09/28 07:49:29;;;;;;;10.23;9.93;;;10.00;99.90;;;;;;5094502;28;20225;-83
2022/09/28 07:51:57;;;;;;;10.17;9.87;;;10.00;99.90;;;;;;5100814;28;20222;-82
2022/09/28 07:54:26;;;;;;;10.30;10.00;;;10.10;99.90;;;;;;5099932;28;20237;-84
2022/09/28 07:57:00;;;;;;;10.20;9.90;;;10.10;99.90;;;;;;5100336;28;20214;-83
2022/09/28 07:59:30;;;;;;;9.90;9.60;;;10.00;99.90;;;;;;5099433;28;20209;-83
2022/09/28 08:02:06;;;;;;;10.30;10.00;;;9.60;99.90;;;;;;5100040;28;20222;-83
2022/09/28 08:04:34;;;;;;;9.97;9.67;;;9.30;99.90;;;;;;5100275;28;20317;-80
2022/09/28 08:07:03;;;;;;;9.93;9.63;;;9.20;99.90;;;;;;5100354;28;20221;-81
2022/09/28 08:09:34;;;;;;;10.23;9.93;;;9.10;99.90;;;;;;5099428;28;20226;-84
2022/09/28 08:12:02;;;;;;;10.27;9.97;;;9.00;99.90;;;;;;5099017;28;20301;-85
2022/09/28 08:14:42;;;;;;;10.37;10.07;;;9.00;99.90;;;;;;5086279;28;20234;-86
2022/09/28 08:17:10;;;;;;;10.50;10.20;;;9.00;99.90;;;;;;5080163;28;20242;-86
2022/09/28 08:22:31;;;;;;;10.10;9.80;;;8.90;99.90;;;;;;5080667;28;20202;-84
2022/09/28 08:24:58;;;;;;;10.20;9.90;;;9.00;99.90;;;;;;5079745;28;20222;-82
2022/09/28 08:27:26;;;;;;;10.23;9.93;;;9.00;99.90;;;;;;5079495;28;20222;-80
2022/09/28 08:29:57;;;;;;;10.20;9.90;;;9.10;99.90;;;;;;5079063;28;20219;-81
2022/09/28 08:32:25;;;;;;;10.00;9.70;;;9.20;99.90;;;;;;5078873;28;20206;-84
2022/09/28 08:34:54;;;;;;;10.03;9.73;;;9.20;99.90;;;;;;5078165;28;20262;-84
2022/09/28 08:37:24;;;;;;;10.00;9.70;;;9.30;99.90;;;;;;5083214;28;20238;-83
2022/09/28 08:39:54;;;;;;;10.37;10.07;;;9.30;99.90;;;;;;5086257;28;20242;-84
2022/09/28 08:42:34;;;;;;;10.20;9.90;;;9.40;99.90;;;;;;5082341;28;20245;-84
2022/09/28 08:45:09;;;;;;;10.20;9.90;;;9.50;99.90;;;;;;5080408;28;20222;-84
2022/09/28 08:50:44;;;;;;;9.83;9.53;;;9.70;99.90;;;;;;5080742;28;20230;-83
2022/09/28 08:53:33;;;;;;;9.70;9.40;;;9.90;99.90;;;;;;5080849;28;20238;-83
2022/09/28 08:56:09;;;;;;;9.83;9.53;;;10.20;99.90;;;;;;5080951;28;20301;-84
2022/09/28 08:58:48;;;;;;;10.13;9.83;;;10.30;99.90;;;;;;5081787;28;20232;-84
2022/09/28 09:01:26;;;;;;;10.43;10.13;;;10.30;99.90;;;;;;5080030;28;20333;-83
2022/09/28 09:03:56;;;;;;;10.20;9.90;;;10.10;99.90;;;;;;5077949;28;20241;-82
2022/09/28 09:06:35;;;;;;;9.97;9.67;;;10.10;99.90;;;;;;5080281;28;20300;-83
2022/09/28 09:09:13;;;;;;;10.27;9.97;;;10.10;99.90;;;;;;5082054;28;20301;-80
2022/09/28 09:11:59;;;;;;;10.10;9.80;;;10.10;99.90;;;;;;5082783;28;20226;-82
2022/09/28 09:14:54;;;;;;;9.90;9.60;;;10.10;99.90;;;;;;5081740;28;20230;-83
2022/09/28 09:17:41;;;;;;;9.60;9.30;;;10.30;99.90;;;;;;5081284;28;20234;-82
2022/09/28 09:20:19;;;;;;;9.77;9.47;;;10.30;99.90;;;;;;5072731;28;20269;-82
2022/09/28 09:22:59;;;;;;;9.70;9.40;;;10.20;99.90;;;;;;5089185;28;20232;-82
2022/09/28 09:25:37;;;;;;;9.50;9.20;;;10.20;99.90;;;;;;5066939;28;20230;-82
2022/09/28 09:29:16;;;;;;;9.50;9.20;;;10.30;99.90;;;;;;5084679;28;20234;-83
2022/09/28 09:32:03;;;;;;;9.83;9.53;;;10.60;99.90;;;;;;5030370;28;20328;-83
2022/09/28 09:35:07;;;;;;;10.00;9.70;;;10.80;99.90;;;;;;5091509;28;20237;-82
2022/09/28 09:38:05;;;;;;;10.00;9.70;;;11.10;99.90;;;;;;5067703;28;20237;-82
2022/09/28 09:40:57;;;;;;;10.30;10.00;;;11.40;99.90;;;;;;5065310;28;20235;-81
2022/09/28 09:44:12;;;;;;;10.33;10.03;;;11.90;99.90;;;;;;5065302;28;20227;-82
2022/09/28 09:46:50;;;;;;;10.33;10.03;;;11.90;99.90;;;;;;5064161;28;20238;-82
2022/09/28 09:49:23;;;;;;;10.60;10.30;;;11.90;99.90;;;;;;5068576;28;20287;-82
2022/09/28 09:52:01;;;;;;;10.23;9.93;;;11.60;99.90;;;;;;5067419;28;20265;-83
2022/09/28 09:54:37;;;;;;;10.37;10.07;;;11.50;99.90;;;;;;5065800;28;20358;-83
2022/09/28 09:57:18;;;;;;;10.23;9.93;;;11.40;99.90;;;;;;5065498;28;20301;-84
2022/09/28 09:59:47;;;;;;;10.40;10.10;;;11.60;99.90;;;;;;5064457;28;20250;-84
2022/09/28 10:02:24;;;;;;;10.10;9.80;;;12.00;99.90;;;;;;5082750;28;20236;-84
2022/09/28 10:04:56;;;;;;;10.60;10.30;;;12.10;99.90;;;;;;5085070;28;20226;-84
2022/09/28 10:07:32;;;;;;;10.43;10.13;;;12.30;99.90;;;;;;5086536;28;20226;-84
2022/09/28 10:10:02;;;;;;;10.60;10.30;;;12.60;99.90;;;;;;5085846;28;20210;-81
2022/09/28 10:12:31;;;;;;;10.80;10.50;;;13.00;99.90;;;;;;5086302;28;20222;-81
2022/09/28 10:15:01;;;;;;;10.90;10.60;;;13.30;99.90;;;;;;5079676;28;20245;-81
2022/09/28 10:17:29;;;;;;;10.87;10.57;;;13.30;99.90;;;;;;5083199;28;20246;-82
2022/09/28 10:19:58;;;;;;;11.10;10.80;;;13.40;99.90;;;;;;5082719;28;20230;-84
2022/09/28 10:25:33;;;;;;;10.73;10.43;;;13.50;99.90;;;;;;5199840;27;20484;-85
2022/09/28 10:28:05;;;;;;;11.07;10.77;;;13.80;99.90;;;;;;5182715;27;20230;-84
2022/09/28 10:30:43;;;;;;;10.63;10.33;;;13.70;99.90;;;;;;5189769;27;20238;-80
2022/09/28 10:33:28;;;;;;;10.50;10.20;;;13.40;99.90;;;;;;5187595;27;20233;-79
2022/09/28 10:35:56;;;;;;;10.73;10.43;;;13.40;99.90;;;;;;5186019;27;20244;-79
2022/09/28 10:38:24;;;;;;;10.60;10.30;;;13.30;99.90;;;;;;5174530;27;20228;-79
2022/09/28 10:41:24;;;;;;;11.07;10.77;;;13.70;99.90;;;;;;5180840;27;20234;-84
2022/09/28 10:44:04;;;;;;;10.67;10.37;;;14.40;99.90;;;;;;5184965;27;20288;-83
2022/09/28 10:46:38;;;;;;;11.03;10.73;;;14.80;99.90;;;;;;5179735;27;20233;-83
2022/09/28 10:49:18;;;;;;;10.90;10.60;;;15.00;99.90;;;;;;5181433;27;20233;-83
2022/09/28 10:51:48;;;;;;;11.15;10.85;;;15.00;99.90;;;;;;5181937;27;20230;-84
2022/09/28 10:54:18;;;;;;;11.03;10.73;;;15.10;99.90;;;;;;5181656;27;20230;-83
2022/09/28 10:56:54;;;;;;;11.13;10.83;;;14.50;99.90;;;;;;5182373;27;20278;-83
2022/09/28 10:59:41;;;;;;;11.00;10.70;;;13.80;99.90;;;;;;5181264;27;20279;-84
2022/09/28 11:02:22;;;;;;;10.90;10.60;;;13.30;99.90;;;;;;5182253;27;20227;-83
2022/09/28 11:04:57;;;;;;;10.97;10.67;;;13.20;99.90;;;;;;5181339;27;20242;-83
2022/09/28 11:07:29;;;;;;;11.10;10.80;;;13.40;99.90;;;;;;5178565;27;20330;-82
2022/09/28 11:09:57;;;;;;;10.50;10.20;;;13.70;99.90;;;;;;5180589;27;20238;-83
2022/09/28 11:12:44;;;;;;;10.40;10.10;;;13.30;99.90;;;;;;5181617;27;20230;-84
2022/09/28 11:15:22;;;;;;;10.20;9.90;;;13.10;99.90;;;;;;5180356;27;20313;-85
2022/09/28 11:17:51;;;;;;;10.63;10.33;;;13.40;99.90;;;;;;5181379;27;20226;-84
2022/09/28 11:20:39;;;;;;;10.43;10.13;;;14.10;99.90;;;;;;5180647;27;20241;-85
2022/09/28 11:23:24;;;;;;;10.57;10.27;;;14.80;99.90;;;;;;5183235;27;20211;-83
2022/09/28 11:26:04;;;;;;;10.77;10.48;;;15.20;99.90;;;;;;5183673;27;20242;-84
2022/09/28 11:28:42;;;;;;;10.52;10.23;;;15.40;99.90;;;;;;5180692;27;20226;-83
2022/09/28 11:31:11;;;;;;;10.57;10.27;;;15.60;99.90;;;;;;5180348;27;20254;-87
2022/09/28 11:33:43;;;;;;;10.67;10.37;;;15.60;99.90;;;;;;5185740;27;20214;-87
2022/09/28 11:36:28;;;;;;;10.50;10.20;;;14.60;99.90;;;;;;5191309;27;20219;-83
2022/09/28 11:39:07;;;;;;;10.50;10.20;;;13.80;99.90;;;;;;5189907;27;20214;-82
2022/09/28 11:41:52;;;;;;;10.50;10.20;;;13.30;99.90;;;;;;5189511;27;20291;-82
2022/09/28 11:44:49;;;;;;;10.30;10.00;;;12.90;99.90;;;;;;5169086;27;20227;-82
2022/09/28 11:47:52;;;;;;;10.43;10.13;;;12.60;99.90;;;;;;5167707;27;20254;-82
2022/09/28 11:50:32;;;;;;;10.37;10.07;;;12.60;99.90;;;;;;5167440;27;20759;-82
2022/09/28 11:53:18;;;;;;;10.57;10.27;;;12.80;99.90;;;;;;5167264;27;20241;-82
2022/09/28 11:55:52;;;;;;;10.40;10.10;;;13.10;99.90;;;;;;5167194;27;20249;-83
2022/09/28 11:58:27;;;;;;;10.20;9.90;;;13.40;99.90;;;;;;5166983;27;20318;-83
2022/09/28 12:18:16;;;;;;;11.13;10.82;;;15.90;99.90;;;;;;4999427;28;20305;-88
2022/09/28 13:33:34;;;;;;;10.77;10.48;;;17.40;99.90;;;;;;4896248;28;20225;-86
2022/09/28 13:36:51;;;;;;;10.80;10.50;;;17.50;99.90;;;;;;5048985;28;20227;-86
2022/09/28 13:47:25;;;;;;;10.73;10.43;;;15.80;99.90;;;;;;5102332;28;20252;-85
2022/09/28 13:54:22;;;;;;;10.88;10.57;;;15.30;99.90;;;;;;5102572;28;20232;-85
2022/09/28 14:07:03;;;;;;;11.10;10.80;;;14.70;99.90;;;;;;5100991;28;20225;-85
2022/09/28 14:10:23;;;;;;;10.90;10.60;;;14.40;99.90;;;;;;5105217;28;20229;-84
2022/09/28 14:14:04;;;;;;;11.40;11.07;;;14.40;99.90;;;;;;5107716;28;20230;-85
2022/09/28 14:34:51;;;;;;;10.57;10.27;;;15.20;99.90;;;;;;5126040;28;20244;-85
2022/09/28 14:50:56;;;;;;;11.00;10.70;;;14.10;99.90;;;;;;5121544;28;20255;-82
2022/09/28 15:12:04;;;;;;;;;;;;;;;;;;;;;
2022/09/28 15:15:19;;;;;;;10.50;10.20;;;13.70;99.90;;;;;;5121246;28;20232;-82
2022/09/28 15:18:04;;;;;;;10.60;10.30;;;13.50;99.90;;;;;;5128929;28;20297;-83
2022/09/28 15:20:43;;;;;;;10.90;10.60;;;13.60;99.90;;;;;;5130074;28;20247;-83
2022/09/28 15:23:37;;;;;;;10.47;10.17;;;13.70;99.90;;;;;;5129409;28;20259;-83
2022/09/28 15:26:27;;;;;;;10.43;10.13;;;13.60;99.90;;;;;;5125838;28;20297;-83
2022/09/28 15:29:41;;;;;;;10.50;10.20;;;13.50;99.90;;;;;;5123847;28;20247;-83
2022/09/28 15:32:24;;;;;;;10.20;9.90;;;13.40;99.90;;;;;;5107058;28;20259;-84
2022/09/28 15:35:34;;;;;;;10.30;10.00;;;13.30;99.90;;;;;;5105949;28;20233;-83
2022/09/28 15:38:17;;;;;;;10.43;10.13;;;13.20;99.90;;;;;;5114692;28;20224;-84
2022/09/28 15:43:36;;;;;;;10.40;10.10;;;13.00;99.90;;;;;;5106470;28;20218;-84
2022/09/28 15:46:31;;;;;;;10.30;10.00;;;12.90;99.90;;;;;;5106219;28;20312;-84
2022/09/28 15:49:00;;;;;;;10.33;10.03;;;12.60;99.90;;;;;;5125298;28;20254;-83
2022/09/28 15:51:40;;;;;;;10.40;10.10;;;12.50;99.90;;;;;;5122374;28;20317;-83
2022/09/28 15:54:26;;;;;;;9.80;9.50;;;12.50;99.90;;;;;;5124549;28;20225;-82
2022/09/28 16:00:36;;;;;;;9.50;9.20;;;12.40;99.90;;;;;;5128485;28;20255;-83
2022/09/28 16:03:32;;;;;;;10.10;9.80;;;12.40;99.90;;;;;;5128057;28;20249;-82
2022/09/28 16:06:15;;;;;;;9.87;9.57;;;12.50;99.90;;;;;;5128092;28;20232;-83
2022/09/28 16:08:55;;;;;;;9.80;9.50;;;12.70;99.90;;;;;;5128197;28;20247;-83
2022/09/28 16:11:44;;;;;;;9.80;9.50;;;12.90;99.90;;;;;;5120664;28;20719;-84
2022/09/28 16:14:29;;;;;;;10.17;9.87;;;13.10;99.90;;;;;;5126781;28;20282;-83
2022/09/28 16:17:16;;;;;;;9.93;9.63;;;13.10;99.90;;;;;;5127536;28;20233;-84
2022/09/28 16:20:06;;;;;;;9.33;9.03;;;13.20;99.90;;;;;;5128775;28;20247;-84
2022/09/28 16:22:34;;;;;;;9.30;9.00;;;13.20;99.90;;;;;;5127090;28;20244;-84
2022/09/28 16:37:41;;;;;;;9.50;9.20;;;12.80;99.90;;;;;;5127656;28;20216;-84
2022/09/28 16:47:21;;;;;;;9.60;9.30;;;12.40;99.90;;;;;;5040990;28;20249;-83
2022/09/28 16:50:17;;;;;;;9.70;9.40;;;12.30;99.90;;;;;;5144861;27;20228;-83